Time;durP1;ratioP1;P1;durP2;ratioP2;P2;SDS_P1;SDS_P2;PMS_P1;PMS_P2;Temp;Humidity;BMP_temperature;BMP_pressure;BME280_temperature;BME280_humidity;BME280_pressure;Samples;Min_cycle;Max_cycle;Signal;HPM_P1;HPM_P2
2021/11/30 00:00:50;;;;;;;20.50;9.63;;;2.20;99.90;;;;;;5068935;28;20053;-72
2021/11/30 00:03:19;;;;;;;17.30;8.60;;;2.10;99.90;;;;;;5070050;28;20040;-72
2021/11/30 00:05:46;;;;;;;19.53;9.03;;;2.20;99.90;;;;;;5068297;28;20189;-72
2021/11/30 00:08:13;;;;;;;20.53;9.43;;;2.20;99.90;;;;;;5068520;28;20487;-71
2021/11/30 00:10:46;;;;;;;19.30;9.80;;;2.10;99.90;;;;;;5068847;28;20094;-72
2021/11/30 00:13:15;;;;;;;19.13;9.53;;;2.20;99.90;;;;;;5068694;28;20057;-71
2021/11/30 00:15:43;;;;;;;17.60;8.53;;;2.10;99.90;;;;;;5068399;28;20102;-71
2021/11/30 00:18:10;;;;;;;23.90;11.37;;;2.10;99.90;;;;;;5072322;28;20061;-72
2021/11/30 00:20:40;;;;;;;18.47;9.00;;;2.20;99.90;;;;;;5072658;28;20508;-72
2021/11/30 00:23:08;;;;;;;21.33;10.13;;;2.20;99.90;;;;;;5073985;28;20048;-71
2021/11/30 00:25:35;;;;;;;18.43;9.33;;;2.20;99.90;;;;;;5073323;28;20044;-72
2021/11/30 00:28:03;;;;;;;26.20;11.07;;;2.20;99.90;;;;;;5072459;28;20060;-71
2021/11/30 00:30:31;;;;;;;17.80;8.60;;;2.20;99.90;;;;;;5072510;28;20052;-72
2021/11/30 00:32:59;;;;;;;18.40;8.27;;;2.20;99.90;;;;;;5072014;28;20431;-72
2021/11/30 00:35:27;;;;;;;17.47;8.50;;;2.20;99.90;;;;;;5071354;28;20090;-72
2021/11/30 00:37:56;;;;;;;19.60;10.50;;;2.10;99.90;;;;;;5071789;28;20110;-73
2021/11/30 00:40:24;;;;;;;21.90;9.93;;;2.10;99.90;;;;;;5073505;28;20048;-72
2021/11/30 00:42:51;;;;;;;16.30;8.80;;;2.10;99.90;;;;;;5072612;28;20052;-72
2021/11/30 00:45:19;;;;;;;17.10;8.90;;;2.10;99.90;;;;;;5071286;28;20130;-72
2021/11/30 00:47:50;;;;;;;17.53;9.23;;;2.10;99.90;;;;;;5071860;28;20052;-72
2021/11/30 00:50:19;;;;;;;18.67;8.87;;;2.10;99.90;;;;;;5072149;28;20139;-73
2021/11/30 00:52:46;;;;;;;19.63;8.53;;;2.10;99.90;;;;;;5071856;28;20053;-72
2021/11/30 00:55:15;;;;;;;19.97;9.50;;;2.10;99.90;;;;;;5071099;28;20057;-72
2021/11/30 00:57:43;;;;;;;17.50;9.20;;;2.10;99.90;;;;;;5071729;28;20060;-72
2021/11/30 01:00:12;;;;;;;18.77;9.87;;;2.10;99.90;;;;;;5071871;28;20049;-73
2021/11/30 01:02:40;;;;;;;19.93;9.80;;;2.10;99.90;;;;;;5071485;28;20102;-71
2021/11/30 01:05:09;;;;;;;20.63;9.63;;;2.10;99.90;;;;;;5070896;28;20052;-71
2021/11/30 01:07:36;;;;;;;19.67;10.23;;;2.10;99.90;;;;;;5071491;28;20056;-72
2021/11/30 01:10:07;;;;;;;19.27;9.77;;;2.10;99.90;;;;;;5071611;28;20508;-72
2021/11/30 01:12:35;;;;;;;18.93;10.00;;;2.20;99.90;;;;;;5071612;28;20052;-71
2021/11/30 01:15:05;;;;;;;20.80;10.30;;;2.20;99.90;;;;;;5070699;28;20451;-72
2021/11/30 01:17:32;;;;;;;21.40;10.10;;;2.20;99.90;;;;;;5071544;28;20397;-71
2021/11/30 01:19:59;;;;;;;21.30;9.77;;;2.20;99.90;;;;;;5072826;28;20474;-71
2021/11/30 01:22:27;;;;;;;18.40;10.40;;;2.20;99.90;;;;;;5072932;28;20052;-72
2021/11/30 01:24:54;;;;;;;18.93;10.03;;;2.20;99.90;;;;;;5070661;28;20049;-73
2021/11/30 01:27:21;;;;;;;20.90;10.73;;;2.20;99.90;;;;;;5071186;28;20118;-72
2021/11/30 01:29:49;;;;;;;18.07;10.23;;;2.30;99.90;;;;;;5071220;28;20625;-72
2021/11/30 01:32:16;;;;;;;18.10;10.13;;;2.30;99.90;;;;;;5070740;28;20436;-72
2021/11/30 01:34:43;;;;;;;20.40;10.63;;;2.30;99.90;;;;;;5070401;28;20052;-71
2021/11/30 01:37:15;;;;;;;21.07;10.67;;;2.30;99.90;;;;;;5071877;28;20044;-71
2021/11/30 01:39:45;;;;;;;20.73;10.33;;;2.30;99.90;;;;;;5074614;28;20053;-71
2021/11/30 01:42:14;;;;;;;20.60;11.23;;;2.30;99.90;;;;;;5074336;28;20091;-71
2021/11/30 01:44:47;;;;;;;19.33;10.43;;;2.40;99.90;;;;;;5071456;28;20044;-71
2021/11/30 01:47:41;;;;;;;21.30;11.13;;;2.40;99.90;;;;;;5071839;28;20089;-72
2021/11/30 01:50:11;;;;;;;19.83;10.07;;;2.40;99.90;;;;;;5072099;28;20147;-72
2021/11/30 01:52:39;;;;;;;17.77;10.07;;;2.40;99.90;;;;;;5075076;28;20052;-71
2021/11/30 01:55:07;;;;;;;20.93;10.50;;;2.40;99.90;;;;;;5072614;28;20048;-72
2021/11/30 01:57:35;;;;;;;17.93;10.17;;;2.40;99.90;;;;;;5073682;28;20052;-71
2021/11/30 02:00:02;;;;;;;19.23;11.00;;;2.50;99.90;;;;;;5075189;28;20307;-71
2021/11/30 02:02:31;;;;;;;21.30;11.60;;;2.40;99.90;;;;;;5074035;28;20117;-72
2021/11/30 02:04:58;;;;;;;18.70;9.63;;;2.40;99.90;;;;;;5069849;28;20051;-72
2021/11/30 02:07:25;;;;;;;20.70;11.57;;;2.30;99.90;;;;;;5070278;28;20053;-73
2021/11/30 02:09:52;;;;;;;21.00;10.87;;;2.30;99.90;;;;;;5070354;28;20515;-71
2021/11/30 02:12:20;;;;;;;20.20;10.43;;;2.20;99.90;;;;;;5070450;28;20487;-72
2021/11/30 02:14:47;;;;;;;22.60;12.10;;;2.10;99.90;;;;;;5069660;28;20056;-72
2021/11/30 02:17:14;;;;;;;21.87;12.23;;;2.10;99.90;;;;;;5070229;28;20064;-72
2021/11/30 02:19:48;;;;;;;21.07;12.70;;;2.10;99.90;;;;;;5070422;28;20492;-73
2021/11/30 02:22:15;;;;;;;21.67;11.63;;;2.10;99.90;;;;;;5070474;28;20497;-71
2021/11/30 02:24:43;;;;;;;22.57;11.80;;;2.10;99.90;;;;;;5069758;28;20048;-71
2021/11/30 02:27:10;;;;;;;23.90;12.23;;;2.00;99.90;;;;;;5070209;28;20093;-72
2021/11/30 02:29:37;;;;;;;20.10;11.63;;;2.00;99.90;;;;;;5069964;28;20098;-72
2021/11/30 02:32:05;;;;;;;24.60;12.47;;;2.00;99.90;;;;;;5070363;28;20102;-72
2021/11/30 02:34:32;;;;;;;19.13;10.77;;;2.00;99.90;;;;;;5069972;28;20259;-71
2021/11/30 02:37:05;;;;;;;21.80;11.33;;;2.00;99.90;;;;;;5069711;28;20056;-72
2021/11/30 02:39:34;;;;;;;18.83;9.07;;;2.00;99.90;;;;;;5069858;28;20059;-72
2021/11/30 02:42:03;;;;;;;18.90;9.90;;;2.00;99.90;;;;;;5070089;28;20098;-71
2021/11/30 02:44:31;;;;;;;23.63;12.33;;;2.00;99.90;;;;;;5069792;28;20056;-71
2021/11/30 02:46:59;;;;;;;23.90;12.40;;;2.00;99.90;;;;;;5069246;28;20551;-72
2021/11/30 02:49:28;;;;;;;19.80;10.70;;;2.00;99.90;;;;;;5070215;28;20048;-72
2021/11/30 02:52:03;;;;;;;22.53;11.30;;;2.00;99.90;;;;;;5069690;28;20558;-71
2021/11/30 02:54:31;;;;;;;20.90;11.00;;;2.00;99.90;;;;;;5069713;28;20088;-72
2021/11/30 02:57:00;;;;;;;22.87;10.80;;;2.10;99.90;;;;;;5069042;28;20072;-72
2021/11/30 02:59:30;;;;;;;20.80;10.90;;;2.10;99.90;;;;;;5069586;28;20052;-72
2021/11/30 03:02:00;;;;;;;17.77;9.77;;;2.10;99.90;;;;;;5069672;28;20052;-73
2021/11/30 03:04:27;;;;;;;17.10;8.10;;;2.10;99.90;;;;;;5069432;28;20044;-73
2021/11/30 03:06:55;;;;;;;18.47;10.47;;;2.10;99.90;;;;;;5069361;28;20045;-72
2021/11/30 03:09:22;;;;;;;16.77;8.73;;;2.10;99.90;;;;;;5069218;28;20489;-71
2021/11/30 03:11:52;;;;;;;17.90;9.53;;;2.10;99.90;;;;;;5069536;28;20064;-72
2021/11/30 03:14:19;;;;;;;16.73;8.63;;;2.10;99.90;;;;;;5069135;28;20121;-74
2021/11/30 03:16:48;;;;;;;16.53;9.13;;;2.10;99.90;;;;;;5068888;28;20053;-73
2021/11/30 03:19:16;;;;;;;16.77;9.33;;;2.10;99.90;;;;;;5069443;28;20048;-72
2021/11/30 03:21:43;;;;;;;14.97;8.40;;;2.10;99.90;;;;;;5069428;28;20053;-72
2021/11/30 03:24:10;;;;;;;14.87;7.87;;;2.10;99.90;;;;;;5069715;28;20056;-73
2021/11/30 03:26:37;;;;;;;14.83;8.60;;;2.10;99.90;;;;;;5068821;28;20451;-72
2021/11/30 03:29:06;;;;;;;15.17;7.77;;;2.10;99.90;;;;;;5069864;28;20044;-72
2021/11/30 03:31:36;;;;;;;16.23;7.50;;;2.10;99.90;;;;;;5069535;28;20048;-72
2021/11/30 03:34:05;;;;;;;12.00;6.80;;;2.10;99.90;;;;;;5069048;28;20518;-73
2021/11/30 03:36:35;;;;;;;16.17;8.53;;;2.10;99.90;;;;;;5068808;28;20083;-73
2021/11/30 03:39:07;;;;;;;15.23;8.37;;;2.10;99.90;;;;;;5069192;28;20052;-72
2021/11/30 03:41:34;;;;;;;16.43;9.00;;;2.20;99.90;;;;;;5069385;28;20056;-72
2021/11/30 03:44:02;;;;;;;15.27;8.60;;;2.20;99.90;;;;;;5069561;28;20060;-72
2021/11/30 03:46:31;;;;;;;15.50;8.60;;;2.20;99.90;;;;;;5068632;28;20044;-73
2021/11/30 03:48:59;;;;;;;18.83;8.77;;;2.20;99.90;;;;;;5069238;28;20084;-73
2021/11/30 03:51:26;;;;;;;16.30;8.50;;;2.20;99.90;;;;;;5070097;28;20052;-73
2021/11/30 03:53:54;;;;;;;19.20;9.53;;;2.30;99.90;;;;;;5073246;28;20492;-72
2021/11/30 03:56:21;;;;;;;20.97;9.73;;;2.30;99.90;;;;;;5072771;28;20106;-72
2021/11/30 03:58:48;;;;;;;18.03;9.00;;;2.30;99.90;;;;;;5073203;28;20056;-72
2021/11/30 04:01:15;;;;;;;16.83;9.00;;;2.30;99.90;;;;;;5072972;28;20078;-73
2021/11/30 04:03:43;;;;;;;17.00;7.93;;;2.30;99.90;;;;;;5072993;28;20098;-72
2021/11/30 04:06:10;;;;;;;15.80;8.07;;;2.30;99.90;;;;;;5072275;28;20090;-71
2021/11/30 04:08:39;;;;;;;15.87;7.67;;;2.40;99.90;;;;;;5073120;28;20471;-73
2021/11/30 04:11:07;;;;;;;17.43;6.83;;;2.40;99.90;;;;;;5073221;28;20109;-72
2021/11/30 04:13:34;;;;;;;16.63;7.33;;;2.50;99.90;;;;;;5072461;28;20049;-73
2021/11/30 04:16:01;;;;;;;18.57;7.63;;;2.50;99.90;;;;;;5072574;28;20455;-71
2021/11/30 04:18:28;;;;;;;17.10;7.27;;;2.50;99.90;;;;;;5072655;28;20052;-73
2021/11/30 04:20:56;;;;;;;15.83;7.77;;;2.40;99.90;;;;;;5072671;28;20056;-71
2021/11/30 04:23:24;;;;;;;15.73;7.27;;;2.50;99.90;;;;;;5072448;28;20455;-72
2021/11/30 04:25:52;;;;;;;11.30;5.73;;;2.50;99.90;;;;;;5071722;28;20067;-71
2021/11/30 04:28:19;;;;;;;13.87;7.10;;;2.50;99.90;;;;;;5072445;28;20044;-73
2021/11/30 04:30:46;;;;;;;12.20;5.63;;;2.50;99.90;;;;;;5072425;28;20044;-72
2021/11/30 04:33:13;;;;;;;18.17;6.10;;;2.50;99.90;;;;;;5072543;28;20110;-72
2021/11/30 04:35:40;;;;;;;11.47;5.67;;;2.50;99.90;;;;;;5071835;28;20041;-72
2021/11/30 04:38:08;;;;;;;12.80;5.30;;;2.50;99.90;;;;;;5072375;28;20045;-72
2021/11/30 04:40:35;;;;;;;13.73;5.90;;;2.50;99.90;;;;;;5072473;28;20623;-71
2021/11/30 04:43:02;;;;;;;13.33;5.40;;;2.50;99.90;;;;;;5071929;28;20493;-71
2021/11/30 04:45:34;;;;;;;11.40;5.73;;;2.50;99.90;;;;;;5071753;28;20106;-72
2021/11/30 04:48:01;;;;;;;14.83;6.57;;;2.50;99.90;;;;;;5072418;28;20163;-72
2021/11/30 04:50:31;;;;;;;12.33;5.20;;;2.50;99.90;;;;;;5072313;28;20052;-71
2021/11/30 04:53:00;;;;;;;10.37;5.43;;;2.50;99.90;;;;;;5072228;28;20062;-71
2021/11/30 04:55:30;;;;;;;12.97;5.23;;;2.50;99.90;;;;;;5071095;28;20055;-72
2021/11/30 04:58:00;;;;;;;11.77;5.33;;;2.40;99.90;;;;;;5072272;28;20429;-73
2021/11/30 05:00:27;;;;;;;9.70;5.13;;;2.50;99.90;;;;;;5072001;28;20045;-71
2021/11/30 05:02:55;;;;;;;11.80;5.33;;;2.50;99.90;;;;;;5071482;28;20055;-71
2021/11/30 05:05:22;;;;;;;12.00;4.73;;;2.50;99.90;;;;;;5070949;28;20475;-72
2021/11/30 05:07:49;;;;;;;9.63;5.03;;;2.40;99.90;;;;;;5072009;28;20048;-71
2021/11/30 05:10:18;;;;;;;9.77;5.53;;;2.60;99.90;;;;;;5071470;28;20094;-71
2021/11/30 05:12:47;;;;;;;9.00;5.00;;;2.40;99.90;;;;;;5071876;28;20178;-71
2021/11/30 05:15:15;;;;;;;11.87;5.77;;;2.40;99.90;;;;;;5070866;28;20105;-71
2021/11/30 05:17:42;;;;;;;11.57;5.93;;;2.40;99.90;;;;;;5071635;28;20056;-71
2021/11/30 05:20:10;;;;;;;8.67;4.63;;;2.40;99.90;;;;;;5071692;28;20044;-71
2021/11/30 05:22:37;;;;;;;9.00;4.53;;;2.40;99.90;;;;;;5071306;28;20040;-71
2021/11/30 05:25:06;;;;;;;11.00;5.23;;;2.40;99.90;;;;;;5071102;28;20447;-71
2021/11/30 05:27:39;;;;;;;10.93;5.93;;;2.40;99.90;;;;;;5071429;28;20130;-73
2021/11/30 05:30:10;;;;;;;13.00;5.60;;;2.40;99.90;;;;;;5071734;28;20053;-72
2021/11/30 05:32:38;;;;;;;15.30;7.47;;;2.40;99.90;;;;;;5071572;28;20109;-72
2021/11/30 05:35:06;;;;;;;15.17;6.77;;;2.30;99.90;;;;;;5070377;28;20067;-71
2021/11/30 05:37:33;;;;;;;11.50;5.40;;;2.30;99.90;;;;;;5071230;28;20040;-71
2021/11/30 05:40:00;;;;;;;14.50;5.77;;;2.30;99.90;;;;;;5071524;28;20044;-71
2021/11/30 05:42:27;;;;;;;11.70;6.17;;;2.30;99.90;;;;;;5071478;28;20048;-71
2021/11/30 05:44:54;;;;;;;10.10;4.63;;;2.30;99.90;;;;;;5070552;28;20056;-70
2021/11/30 05:47:23;;;;;;;11.77;5.70;;;2.30;99.90;;;;;;5071163;28;20052;-71
2021/11/30 05:49:50;;;;;;;12.03;5.83;;;2.30;99.90;;;;;;5070829;28;20091;-72
2021/11/30 05:52:17;;;;;;;20.83;5.90;;;2.30;99.90;;;;;;5071066;28;20057;-73
2021/11/30 05:54:44;;;;;;;10.97;5.10;;;2.10;99.90;;;;;;5070444;28;20105;-71
2021/11/30 05:57:17;;;;;;;10.07;5.17;;;2.00;99.90;;;;;;5070731;28;20524;-72
2021/11/30 05:59:45;;;;;;;13.83;6.37;;;2.00;99.90;;;;;;5070698;28;20492;-73
2021/11/30 06:02:12;;;;;;;14.60;5.70;;;2.00;99.90;;;;;;5070952;28;20053;-73
2021/11/30 06:04:41;;;;;;;14.50;6.17;;;1.90;99.90;;;;;;5071603;28;20173;-73
2021/11/30 06:07:09;;;;;;;13.10;6.17;;;1.90;99.90;;;;;;5070584;28;20053;-73
2021/11/30 06:09:36;;;;;;;6.47;3.30;;;1.90;99.90;;;;;;5070518;28;20062;-73
2021/11/30 06:12:04;;;;;;;11.77;6.30;;;1.80;99.90;;;;;;5070879;28;20105;-73
2021/11/30 06:14:31;;;;;;;10.00;4.60;;;1.80;99.90;;;;;;5070280;28;20121;-73
2021/11/30 06:16:58;;;;;;;9.90;5.27;;;1.70;99.90;;;;;;5070375;28;20052;-73
2021/11/30 06:19:25;;;;;;;11.83;6.03;;;1.70;99.90;;;;;;5071504;28;20048;-74
2021/11/30 06:21:54;;;;;;;12.73;5.27;;;1.60;99.90;;;;;;5070844;28;20056;-74
2021/11/30 06:24:21;;;;;;;13.93;6.00;;;1.60;99.90;;;;;;5070675;28;20048;-74
2021/11/30 06:26:49;;;;;;;10.33;5.27;;;1.60;99.90;;;;;;5070052;28;20110;-74
2021/11/30 06:29:16;;;;;;;6.13;3.00;;;1.60;99.90;;;;;;5070746;28;20083;-74
2021/11/30 06:31:44;;;;;;;9.47;4.40;;;1.60;99.90;;;;;;5070636;28;20102;-74
2021/11/30 06:34:11;;;;;;;11.67;4.87;;;1.50;99.90;;;;;;5070775;28;20048;-74
2021/11/30 06:36:38;;;;;;;6.47;3.10;;;1.60;99.90;;;;;;5070299;28;20048;-75
2021/11/30 06:39:07;;;;;;;9.07;4.40;;;1.60;99.90;;;;;;5070559;28;20094;-75
2021/11/30 06:41:34;;;;;;;11.23;5.57;;;1.50;99.90;;;;;;5070583;28;20053;-75
2021/11/30 06:44:01;;;;;;;17.07;5.13;;;1.50;99.90;;;;;;5070366;28;20048;-76
2021/11/30 06:46:28;;;;;;;8.63;4.17;;;1.50;99.90;;;;;;5070123;28;20496;-76
2021/11/30 06:48:55;;;;;;;11.93;4.93;;;1.50;99.90;;;;;;5070176;28;20048;-77
2021/11/30 06:51:22;;;;;;;11.77;5.17;;;1.40;99.90;;;;;;5073950;28;20053;-76
2021/11/30 06:53:49;;;;;;;10.37;4.87;;;1.30;99.90;;;;;;5070739;28;20045;-80
2021/11/30 06:56:18;;;;;;;10.70;5.07;;;1.40;99.90;;;;;;5070526;28;20045;-76
2021/11/30 06:58:45;;;;;;;14.37;5.60;;;1.30;99.90;;;;;;5070641;28;20052;-76
2021/11/30 07:01:12;;;;;;;6.77;3.30;;;1.30;99.90;;;;;;5070406;28;20060;-83
2021/11/30 07:03:42;;;;;;;9.23;5.03;;;1.40;99.90;;;;;;5070814;28;20056;-76
2021/11/30 07:06:18;;;;;;;12.77;5.47;;;1.30;99.90;;;;;;5070272;28;20101;-77
2021/11/30 07:08:55;;;;;;;12.30;4.77;;;1.20;99.90;;;;;;5070395;28;20148;-81
2021/11/30 07:11:36;;;;;;;8.30;3.90;;;1.30;99.90;;;;;;5070634;28;20409;-77
2021/11/30 07:14:04;;;;;;;7.67;3.93;;;1.30;99.90;;;;;;5071028;28;20139;-79
2021/11/30 07:16:31;;;;;;;10.63;4.60;;;1.30;99.90;;;;;;5070457;28;20052;-76
2021/11/30 07:18:58;;;;;;;7.87;3.10;;;1.40;99.90;;;;;;5070314;28;20044;-77
2021/11/30 07:21:26;;;;;;;8.60;3.90;;;1.30;99.90;;;;;;5070076;28;20059;-77
2021/11/30 07:23:53;;;;;;;5.03;2.90;;;1.30;99.90;;;;;;5070781;28;20127;-77
2021/11/30 07:26:20;;;;;;;8.90;3.97;;;1.30;99.90;;;;;;5069857;28;20041;-80
2021/11/30 07:28:49;;;;;;;7.50;2.57;;;1.30;99.90;;;;;;5070475;28;20106;-77
2021/11/30 07:31:16;;;;;;;9.27;3.67;;;1.30;99.90;;;;;;5070088;28;20048;-76
2021/11/30 07:33:46;;;;;;;5.03;2.50;;;1.20;99.90;;;;;;5070083;28;20508;-77
2021/11/30 07:36:15;;;;;;;7.70;2.90;;;1.20;99.90;;;;;;5069519;28;20135;-77
2021/11/30 07:38:46;;;;;;;4.73;2.07;;;1.30;99.90;;;;;;5070249;28;20052;-77
2021/11/30 07:41:13;;;;;;;6.70;2.90;;;1.30;99.90;;;;;;5069928;28;20056;-76
2021/11/30 07:43:41;;;;;;;6.20;2.90;;;1.30;99.90;;;;;;5069957;28;20558;-76
2021/11/30 07:46:09;;;;;;;5.50;2.40;;;1.20;99.90;;;;;;5070034;28;20500;-77
2021/11/30 07:48:37;;;;;;;7.03;2.40;;;1.20;99.90;;;;;;5069869;28;20044;-77
2021/11/30 07:51:06;;;;;;;8.10;3.17;;;1.20;99.90;;;;;;5070084;28;20052;-82
2021/11/30 07:53:33;;;;;;;7.30;3.27;;;1.20;99.90;;;;;;5069986;28;20056;-77
2021/11/30 07:56:00;;;;;;;5.97;2.97;;;1.30;99.90;;;;;;5069614;28;20102;-77
2021/11/30 07:58:27;;;;;;;4.83;2.40;;;1.20;99.90;;;;;;5069897;28;20079;-78
2021/11/30 08:00:55;;;;;;;4.60;2.20;;;1.30;99.90;;;;;;5070311;28;20485;-77
2021/11/30 08:03:24;;;;;;;5.43;2.53;;;1.30;99.90;;;;;;5070055;28;20147;-76
2021/11/30 08:05:51;;;;;;;10.07;2.20;;;1.30;99.90;;;;;;5069835;28;20111;-75
2021/11/30 08:08:18;;;;;;;5.67;2.53;;;1.30;99.90;;;;;;5069651;28;20060;-77
2021/11/30 08:10:45;;;;;;;7.53;2.40;;;1.30;99.90;;;;;;5070107;28;20448;-76
2021/11/30 08:13:12;;;;;;;6.47;2.30;;;1.30;99.90;;;;;;5069670;28;20102;-76
2021/11/30 08:15:39;;;;;;;5.27;2.27;;;1.20;99.90;;;;;;5069111;28;20056;-82
2021/11/30 08:18:07;;;;;;;4.90;2.30;;;1.20;99.90;;;;;;5069745;28;20049;-77
2021/11/30 08:20:35;;;;;;;6.40;2.63;;;1.30;99.90;;;;;;5069389;28;20106;-80
2021/11/30 08:23:03;;;;;;;6.27;2.00;;;1.30;99.90;;;;;;5069080;28;20045;-75
2021/11/30 08:25:31;;;;;;;4.13;1.83;;;1.30;99.90;;;;;;5069348;28;20139;-76
2021/11/30 08:27:58;;;;;;;3.50;1.73;;;1.20;99.90;;;;;;5069940;28;20351;-77
2021/11/30 08:30:25;;;;;;;7.03;2.10;;;1.30;99.90;;;;;;5069368;28;20048;-76
2021/11/30 08:32:52;;;;;;;5.23;1.80;;;1.30;99.90;;;;;;5068954;28;20053;-81
2021/11/30 08:35:19;;;;;;;4.83;2.40;;;1.30;99.90;;;;;;5069234;28;20413;-78
2021/11/30 08:37:48;;;;;;;3.77;1.80;;;1.20;99.90;;;;;;5070826;28;20044;-76
2021/11/30 08:40:15;;;;;;;3.47;1.60;;;1.20;99.90;;;;;;5074082;28;20049;-82
2021/11/30 08:42:42;;;;;;;3.57;1.47;;;1.20;99.90;;;;;;5074389;28;20048;-77
2021/11/30 08:45:11;;;;;;;2.83;1.33;;;1.20;99.90;;;;;;5072179;28;20044;-76
2021/11/30 08:47:40;;;;;;;4.47;1.00;;;1.40;99.90;;;;;;5074244;28;20048;-78
2021/11/30 08:50:12;;;;;;;2.57;1.27;;;1.40;99.90;;;;;;5075824;28;20079;-76
2021/11/30 08:52:40;;;;;;;2.87;1.40;;;1.40;99.90;;;;;;5076531;28;20110;-80
2021/11/30 08:55:10;;;;;;;2.40;1.17;;;1.40;99.90;;;;;;5078407;28;20045;-79
2021/11/30 08:57:37;;;;;;;2.80;1.40;;;1.30;99.90;;;;;;5086257;28;20048;-80
2021/11/30 09:00:08;;;;;;;2.30;1.27;;;1.40;99.90;;;;;;5081327;28;20052;-79
2021/11/30 09:02:36;;;;;;;2.93;1.20;;;1.40;99.90;;;;;;5086942;28;20535;-77
2021/11/30 09:05:05;;;;;;;5.47;1.40;;;1.30;99.90;;;;;;5088863;28;20210;-82
2021/11/30 09:07:32;;;;;;;1.97;1.03;;;1.30;99.90;;;;;;5074897;28;20079;-78
2021/11/30 09:10:00;;;;;;;2.27;1.20;;;1.50;99.90;;;;;;5076014;28;20052;-76
2021/11/30 09:12:28;;;;;;;2.60;1.10;;;1.50;99.90;;;;;;5072227;28;20463;-80
2021/11/30 09:14:55;;;;;;;2.60;1.30;;;1.40;99.90;;;;;;5071375;28;20045;-81
2021/11/30 09:17:23;;;;;;;1.73;1.03;;;1.40;99.90;;;;;;5072002;28;20546;-78
2021/11/30 09:19:50;;;;;;;3.00;1.70;;;1.40;99.90;;;;;;5072140;28;20049;-80
2021/11/30 09:22:20;;;;;;;2.93;1.00;;;1.40;99.90;;;;;;5071692;28;20102;-78
2021/11/30 09:24:47;;;;;;;2.03;1.00;;;1.40;99.90;;;;;;5071797;28;20436;-78
2021/11/30 09:27:14;;;;;;;2.00;0.70;;;1.40;99.90;;;;;;5071405;28;20102;-77
2021/11/30 09:29:43;;;;;;;2.17;1.27;;;1.50;99.90;;;;;;5071837;28;20554;-78
2021/11/30 09:32:11;;;;;;;2.73;1.40;;;1.30;99.90;;;;;;5071989;28;20390;-78
2021/11/30 09:34:38;;;;;;;2.40;1.30;;;1.30;99.90;;;;;;5072112;28;20143;-80
2021/11/30 09:37:08;;;;;;;1.77;0.97;;;1.30;99.90;;;;;;5072018;28;20117;-80
2021/11/30 09:39:35;;;;;;;2.50;1.30;;;1.30;99.90;;;;;;5071630;28;20060;-78
2021/11/30 09:42:03;;;;;;;2.40;1.20;;;1.40;99.90;;;;;;5071731;28;20044;-80
2021/11/30 09:44:31;;;;;;;1.80;1.07;;;1.30;99.90;;;;;;5071512;28;20574;-78
2021/11/30 09:47:00;;;;;;;3.27;1.40;;;1.40;99.90;;;;;;5071220;28;20053;-77
2021/11/30 09:49:28;;;;;;;3.53;1.53;;;1.40;99.90;;;;;;5070426;28;20049;-77
2021/11/30 09:51:55;;;;;;;2.30;1.07;;;1.30;99.90;;;;;;5071223;28;20071;-78
2021/11/30 09:54:23;;;;;;;2.13;1.10;;;1.40;99.90;;;;;;5072043;28;20044;-79
2021/11/30 09:56:49;;;;;;;1.83;1.20;;;1.30;99.90;;;;;;5070866;28;20052;-77
2021/11/30 09:59:17;;;;;;;2.67;1.33;;;1.30;99.90;;;;;;5071407;28;20297;-77
2021/11/30 10:01:44;;;;;;;2.70;1.20;;;1.30;99.90;;;;;;5071550;28;20081;-78
2021/11/30 10:04:12;;;;;;;2.00;1.20;;;1.30;99.90;;;;;;5070870;28;20044;-85
2021/11/30 10:06:39;;;;;;;2.03;0.83;;;1.30;99.90;;;;;;5070415;28;20539;-79
2021/11/30 10:09:17;;;;;;;2.40;1.00;;;1.40;99.90;;;;;;5070877;28;20056;-79
2021/11/30 10:11:44;;;;;;;3.43;1.27;;;1.40;99.90;;;;;;5071894;28;20053;-83
2021/11/30 10:14:15;;;;;;;3.10;1.30;;;1.40;99.90;;;;;;5070968;28;20406;-79
2021/11/30 10:17:02;;;;;;;5.60;1.70;;;1.40;99.90;;;;;;5070472;28;20075;-76
2021/11/30 10:19:31;;;;;;;1.60;0.93;;;1.40;99.90;;;;;;5069960;28;20504;-78
2021/11/30 10:21:58;;;;;;;2.37;1.20;;;1.40;99.90;;;;;;5070927;28;20068;-77
2021/11/30 10:24:25;;;;;;;3.57;1.50;;;1.40;99.90;;;;;;5070667;28;20048;-82
2021/11/30 10:26:56;;;;;;;1.30;0.80;;;1.40;99.90;;;;;;5070305;28;20056;-77
2021/11/30 10:29:23;;;;;;;1.43;1.10;;;1.50;99.90;;;;;;5070517;28;20440;-83
2021/11/30 10:31:53;;;;;;;0.97;0.70;;;1.50;99.90;;;;;;5071105;28;20102;-78
2021/11/30 10:34:23;;;;;;;2.03;1.07;;;1.50;99.90;;;;;;5070604;28;20048;-79
2021/11/30 10:36:56;;;;;;;1.93;1.00;;;1.50;99.90;;;;;;5069655;28;20496;-79
2021/11/30 10:39:26;;;;;;;2.63;1.10;;;1.50;99.90;;;;;;5070674;28;20060;-77
2021/11/30 10:42:13;;;;;;;1.77;1.10;;;1.50;99.90;;;;;;5070806;28;20071;-77
2021/11/30 10:44:40;;;;;;;;;;;1.60;99.90;;;;;;5070143;28;20048;-82
2021/11/30 10:47:09;;;;;;;1.13;0.77;;;1.60;99.90;;;;;;5070304;28;19920;-78
2021/11/30 10:49:45;;;;;;;1.37;0.83;;;1.50;99.90;;;;;;5070809;28;20098;-77
2021/11/30 10:52:19;;;;;;;2.33;0.95;;;1.50;99.90;;;;;;5070245;28;20044;-77
2021/11/30 10:54:47;;;;;;;2.57;0.80;;;1.50;99.90;;;;;;5070024;28;20451;-80
2021/11/30 10:57:14;;;;;;;3.33;1.33;;;1.50;99.90;;;;;;5070662;28;20040;-78
2021/11/30 10:59:41;;;;;;;2.17;0.97;;;1.50;99.90;;;;;;5070248;28;20052;-81
2021/11/30 11:02:11;;;;;;;1.50;0.93;;;1.50;99.90;;;;;;5070000;28;20049;-76
2021/11/30 11:04:38;;;;;;;0.33;0.33;;;1.60;99.90;;;;;;5070011;28;20076;-76
2021/11/30 11:07:08;;;;;;;1.60;0.80;;;1.40;99.90;;;;;;5071072;28;20041;-76
2021/11/30 11:09:42;;;;;;;0.97;0.70;;;1.40;99.90;;;;;;5070156;28;20109;-77
2021/11/30 11:12:11;;;;;;;1.50;0.80;;;1.40;99.90;;;;;;5070273;28;20049;-76
2021/11/30 11:14:47;;;;;;;2.13;1.00;;;1.50;99.90;;;;;;5070231;28;20056;-76
2021/11/30 11:17:28;;;;;;;0.53;0.40;;;1.40;99.90;;;;;;5069777;28;20405;-76
2021/11/30 11:19:56;;;;;;;1.27;0.73;;;1.50;99.90;;;;;;5069798;28;20139;-76
2021/11/30 11:22:25;;;;;;;1.77;0.80;;;1.50;99.90;;;;;;5069928;28;20048;-82
2021/11/30 11:24:57;;;;;;;4.30;1.20;;;1.50;99.90;;;;;;5069875;28;20045;-75
2021/11/30 11:27:32;;;;;;;1.37;0.90;;;1.60;99.90;;;;;;5069906;28;20044;-76
2021/11/30 11:30:00;;;;;;;1.67;0.90;;;1.60;99.90;;;;;;5070529;28;20562;-75
2021/11/30 11:32:28;;;;;;;2.73;1.20;;;1.60;99.90;;;;;;5069636;28;20041;-75
2021/11/30 11:34:55;;;;;;;0.93;0.50;;;1.60;99.90;;;;;;5069637;28;20484;-74
2021/11/30 11:37:22;;;;;;;0.50;0.50;;;1.60;99.90;;;;;;5070000;28;20090;-74
2021/11/30 11:39:50;;;;;;;2.37;1.00;;;1.70;99.90;;;;;;5062990;28;20049;-76
2021/11/30 11:42:21;;;;;;;0.70;0.60;;;1.60;99.90;;;;;;5036702;28;20056;-75
2021/11/30 11:44:48;;;;;;;1.47;0.80;;;1.70;99.90;;;;;;5039474;28;20049;-74
2021/11/30 11:47:17;;;;;;;0.90;0.63;;;1.70;99.90;;;;;;5048852;28;20049;-75
2021/11/30 11:49:50;;;;;;;0.50;0.50;;;1.70;99.90;;;;;;5048688;28;20497;-75
2021/11/30 11:52:24;;;;;;;0.87;0.70;;;1.70;99.90;;;;;;5057000;28;20140;-74
2021/11/30 11:54:59;;;;;;;2.00;0.70;;;1.70;99.90;;;;;;5048506;28;20049;-74
2021/11/30 11:57:29;;;;;;;1.37;0.83;;;1.70;99.90;;;;;;5049116;28;20498;-74
2021/11/30 11:59:56;;;;;;;2.00;0.90;;;1.70;99.90;;;;;;5048833;28;20111;-78
2021/11/30 12:02:24;;;;;;;2.47;0.90;;;1.70;99.90;;;;;;5064967;28;20103;-74
2021/11/30 12:04:54;;;;;;;1.87;1.00;;;1.80;99.90;;;;;;5068483;28;20094;-74
2021/11/30 12:07:22;;;;;;;2.10;1.10;;;1.80;99.90;;;;;;5069102;28;20063;-75
2021/11/30 12:09:52;;;;;;;2.13;1.17;;;1.80;99.90;;;;;;5068422;28;20093;-73
2021/11/30 12:12:23;;;;;;;1.97;1.20;;;1.70;99.90;;;;;;5069760;28;20052;-76
2021/11/30 12:14:59;;;;;;;1.87;1.00;;;1.80;99.90;;;;;;5072450;28;20079;-74
2021/11/30 12:17:29;;;;;;;1.60;0.80;;;1.90;99.90;;;;;;5072541;28;20122;-74
2021/11/30 12:20:13;;;;;;;2.47;1.10;;;1.90;99.90;;;;;;5072525;28;20090;-73
2021/11/30 12:22:46;;;;;;;1.57;0.80;;;1.90;99.90;;;;;;5073759;28;20052;-74
2021/11/30 12:25:44;;;;;;;2.57;1.17;;;1.90;99.90;;;;;;5071981;28;20055;-74
2021/11/30 12:28:31;;;;;;;1.10;0.77;;;1.90;99.90;;;;;;5072530;28;20063;-73
2021/11/30 12:31:00;;;;;;;0.88;0.80;;;1.90;99.90;;;;;;5072764;28;20052;-75
2021/11/30 12:33:31;;;;;;;1.77;0.80;;;1.90;99.90;;;;;;5072680;28;20052;-74
2021/11/30 12:36:03;;;;;;;2.13;1.10;;;1.90;99.90;;;;;;5071804;28;20448;-73
2021/11/30 12:38:35;;;;;;;1.53;0.80;;;1.90;99.90;;;;;;5072444;28;20048;-73
2021/11/30 12:41:26;;;;;;;2.00;1.30;;;1.90;99.90;;;;;;5072218;28;20052;-74
2021/11/30 12:43:55;;;;;;;2.17;0.90;;;1.90;99.90;;;;;;5075106;28;20063;-74
2021/11/30 12:46:32;;;;;;;0.63;0.60;;;2.00;99.90;;;;;;5073154;28;20049;-72
2021/11/30 12:48:59;;;;;;;1.17;1.00;;;2.00;99.90;;;;;;5073005;28;20098;-77
2021/11/30 12:51:30;;;;;;;2.17;1.10;;;2.00;99.90;;;;;;5072473;28;20102;-74
2021/11/30 12:53:59;;;;;;;1.57;0.80;;;2.00;99.90;;;;;;5072258;28;20086;-73
2021/11/30 12:56:49;;;;;;;1.90;0.87;;;1.90;99.90;;;;;;5071884;28;20106;-74
2021/11/30 12:59:50;;;;;;;1.07;0.80;;;2.00;99.90;;;;;;5067349;28;20094;-73